NCAR-RAP Real-Time Weather Data

Output produced by METARs form (08 May 2021  17:00 UTC)
found at http://weather.rap.ucar.edu/surface/
 
KJFK 081651Z 13013KT 10SM BKN040 OVC055 11/03 A2986 RMK AO2 SLP112 T01110028
KJFK 081551Z 11013KT 10SM FEW030 BKN042 BKN055 12/04 A2987 RMK AO2 SLP114 T01170044
KJFK 081451Z 10011KT 10SM FEW030 OVC055 10/06 A2988 RMK AO2 RAE26 SLP118 P0002 60003 T01000056 51007
KJFK 081351Z 12006KT 6SM -RA BKN040 OVC050 11/06 A2988 RMK AO2 SLP117 P0001 T01060061
KJFK 081251Z 09004KT 10SM -RA BKN055 OVC080 11/06 A2986 RMK AO2 RAB25 SLP112 P0000 T01060056
KJFK 081151Z 08003KT 10SM BKN070 OVC080 11/05 A2986 RMK AO2 SLP110 T01060050 10106 20094 53012
KJFK 081051Z 00000KT 10SM BKN070 OVC100 10/06 A2984 RMK AO2 SLP104 T01000056
KJFK 080951Z 00000KT 10SM BKN075 OVC110 10/04 A2983 RMK AO2 SLP101 T01000044
KJFK 080851Z 06003KT 10SM FEW085 SCT110 BKN130 OVC160 09/05 A2982 RMK AO2 SLP098 T00940050 58015
KJFK 080751Z 10004KT 10SM BKN085 OVC110 10/05 A2984 RMK AO2 SLP103 T01000050
KJFK 080651Z 09006KT 10SM BKN070 OVC095 10/06 A2986 RMK AO2 SLP109 T01000056
KJFK 080551Z 09006KT 10SM BKN080 OVC100 10/05 A2987 RMK AO2 SLP113 T01000050 10117 20100 58009
KJFK 080451Z 10007KT 10SM FEW040 SCT080 SCT120 SCT150 SCT250 10/05 A2988 RMK AO2 SLP117 T01000050 401670089
KJFK 080351Z 09006KT 10SM FEW040 BKN085 BKN110 BKN150 10/05 A2989 RMK AO2 SLP120 T01000050
KJFK 080251Z 10009KT 10SM FEW040 BKN085 OVC120 11/06 A2989 RMK AO2 SLP122 T01110056 53007
KJFK 080151Z 10009KT 10SM FEW020 BKN150 OVC250 11/06 A2989 RMK AO2 SLP122 T01110061
KJFK 080051Z 10008KT 10SM FEW020 SCT120 BKN200 BKN250 12/06 A2987 RMK AO2 SLP115 T01170061
KJFK 072351Z 10011KT 10SM FEW020 FEW050 BKN120 BKN250 12/08 A2987 RMK AO2 SLP115 T01170083 10161 20117 55000
KJFK 072251Z 11011KT 10SM FEW050 BKN130 BKN250 12/08 A2987 RMK AO2 SLP114 T01220078
KJFK 072151Z 14010KT 10SM FEW050 BKN150 BKN250 13/08 A2987 RMK AO2 SLP114 T01330078
KJFK 072051Z 13013KT 10SM FEW060 SCT140 SCT170 BKN250 13/07 A2987 RMK AO2 SLP115 T01330072 56006
KJFK 071951Z 15011KT 10SM FEW060 BKN140 BKN200 BKN250 14/04 A2987 RMK AO2 SLP115 T01440044
KJFK 071851Z 22008KT 10SM FEW060 SCT210 BKN250 16/04 A2988 RMK AO2 SLP116 T01560039
KJFK 071751Z 16006KT 10SM FEW060 SCT180 BKN250 15/06 A2989 RMK AO2 SLP121 T01500056 10167 20122 58015
KJFK 071651Z 13010KT 10SM FEW060 FEW160 BKN230 16/06 A2991 RMK AO2 SLP126 T01560061
KJFK 071551Z 14010KT 10SM FEW160 BKN250 16/06 A2992 RMK AO2 SLP132 T01560056
KJFK 071451Z 17006KT 10SM FEW160 BKN250 16/02 A2994 RMK AO2 SLP137 T01610022 53001
KJFK 071351Z 12005KT 10SM BKN250 15/01 A2993 RMK AO2 SLP133 T01500011
KJFK 071251Z 05010KT 10SM SCT250 14/01 A2993 RMK AO2 SLP134 T01440011
KJFK 071151Z 06008KT 10SM FEW250 12/01 A2993 RMK AO2 SLP135 T01220011 10122 20089 55000
KJFK 071051Z 02008KT 10SM FEW180 SCT250 11/01 A2993 RMK AO2 SLP133 T01060006
KJFK 070951Z 36009KT 10SM FEW180 FEW250 09/00 A2992 RMK AO2 SLP133 T00940000
KJFK 070851Z 36008KT 10SM BKN180 BKN250 10/M01 A2993 RMK AO2 SLP135 T01001006 56006
KJFK 070751Z 36005KT 10SM SCT180 BKN250 10/M01 A2994 RMK AO2 SLP137 T01001006
KJFK 070651Z 01005KT 10SM SCT190 BKN250 11/M01 A2994 RMK AO2 SLP139 T01061006
KJFK 070551Z 01006KT 10SM BKN230 12/M01 A2995 RMK AO2 SLP141 T01171006 10133 20106 58003
KJFK 070451Z 36007KT 10SM BKN240 12/01 A2996 RMK AO2 SLP145 T01220011 401940100
KJFK 070351Z 36008KT 10SM BKN210 13/02 A2996 RMK AO2 SLP145 T01280017
KJFK 070251Z 00000KT 10SM BKN210 12/08 A2996 RMK AO2 SLP144 T01220083 50012
KJFK 070151Z 20006KT 10SM BKN210 11/08 A2996 RMK AO2 SLP144 T01110083
KJFK 070051Z 20010KT 10SM BKN220 12/08 A2994 RMK AO2 SLP137 T01220078
KJFK 062351Z 20010KT 10SM BKN190 BKN250 13/06 A2992 RMK AO2 SLP132 T01280061 10194 20128 53012
KJFK 062251Z 33010KT 10SM BKN200 BKN250 17/M01 A2990 RMK AO2 SLP123 T01721011
KJFK 062151Z 34010KT 10SM BKN210 BKN250 18/00 A2989 RMK AO2 SLP122 T01830000
KJFK 062051Z 30010G20KT 10SM BKN250 19/00 A2989 RMK AO2 SLP120 T01890000 58009
KJFK 061951Z 31008G16KT 10SM FEW065 BKN250 19/01 A2989 RMK AO2 SLP123 T01890006
KJFK 061851Z 34012G19KT 10SM FEW065 BKN250 19/01 A2991 RMK AO2 SLP128 T01890011
KJFK 061751Z 32012G18KT 10SM FEW065 FEW250 18/01 A2991 RMK AO2 SLP130 T01830011 10183 20122 58015